sensor_id;sensor_type;location;lat;lon;timestamp;P1;durP1;ratioP1;P2;durP2;ratioP2
32186;SDS011;18686;53.084;8.872;2022-08-18T00:01:09;8.90;;;8.00;;
32186;SDS011;18686;53.084;8.872;2022-08-18T00:06:24;9.50;;;8.60;;
32186;SDS011;18686;53.084;8.872;2022-08-18T00:08:55;9.93;;;8.93;;
32186;SDS011;18686;53.084;8.872;2022-08-18T00:11:24;9.32;;;8.52;;
32186;SDS011;18686;53.084;8.872;2022-08-18T00:14:06;9.35;;;8.35;;
32186;SDS011;18686;53.084;8.872;2022-08-18T00:16:46;9.95;;;8.95;;
32186;SDS011;18686;53.084;8.872;2022-08-18T00:19:15;10.68;;;9.68;;
32186;SDS011;18686;53.084;8.872;2022-08-18T00:21:43;10.85;;;9.85;;
32186;SDS011;18686;53.084;8.872;2022-08-18T00:24:11;12.85;;;11.75;;
32186;SDS011;18686;53.084;8.872;2022-08-18T00:26:40;11.02;;;10.02;;
32186;SDS011;18686;53.084;8.872;2022-08-18T00:29:14;9.82;;;8.90;;
32186;SDS011;18686;53.084;8.872;2022-08-18T00:31:42;10.88;;;9.90;;
32186;SDS011;18686;53.084;8.872;2022-08-18T00:34:12;11.05;;;9.95;;
32186;SDS011;18686;53.084;8.872;2022-08-18T00:36:40;10.23;;;9.30;;
32186;SDS011;18686;53.084;8.872;2022-08-18T00:39:09;11.35;;;9.77;;
32186;SDS011;18686;53.084;8.872;2022-08-18T00:41:37;10.00;;;9.02;;
32186;SDS011;18686;53.084;8.872;2022-08-18T00:44:05;11.18;;;10.20;;
32186;SDS011;18686;53.084;8.872;2022-08-18T00:46:35;11.15;;;10.07;;
32186;SDS011;18686;53.084;8.872;2022-08-18T00:49:04;10.73;;;9.73;;
32186;SDS011;18686;53.084;8.872;2022-08-18T00:51:36;12.30;;;11.10;;
32186;SDS011;18686;53.084;8.872;2022-08-18T00:54:08;11.57;;;10.48;;
32186;SDS011;18686;53.084;8.872;2022-08-18T00:56:42;11.57;;;10.45;;
32186;SDS011;18686;53.084;8.872;2022-08-18T00:59:15;14.43;;;12.93;;
32186;SDS011;18686;53.084;8.872;2022-08-18T01:01:50;13.65;;;12.23;;
32186;SDS011;18686;53.084;8.872;2022-08-18T01:04:21;13.77;;;12.38;;
32186;SDS011;18686;53.084;8.872;2022-08-18T01:06:57;14.65;;;12.75;;
32186;SDS011;18686;53.084;8.872;2022-08-18T01:09:29;14.93;;;13.40;;
32186;SDS011;18686;53.084;8.872;2022-08-18T01:11:57;16.30;;;14.60;;
32186;SDS011;18686;53.084;8.872;2022-08-18T01:14:38;14.07;;;12.68;;
32186;SDS011;18686;53.084;8.872;2022-08-18T01:17:06;13.65;;;12.25;;
32186;SDS011;18686;53.084;8.872;2022-08-18T01:20:00;13.23;;;12.02;;
32186;SDS011;18686;53.084;8.872;2022-08-18T01:22:51;14.00;;;12.73;;
32186;SDS011;18686;53.084;8.872;2022-08-18T01:25:25;14.25;;;12.95;;
32186;SDS011;18686;53.084;8.872;2022-08-18T01:28:11;14.52;;;13.13;;
32186;SDS011;18686;53.084;8.872;2022-08-18T01:30:44;15.48;;;13.98;;
32186;SDS011;18686;53.084;8.872;2022-08-18T01:33:15;14.15;;;12.80;;
32186;SDS011;18686;53.084;8.872;2022-08-18T01:35:44;13.80;;;12.60;;
32186;SDS011;18686;53.084;8.872;2022-08-18T01:38:17;16.45;;;14.75;;
32186;SDS011;18686;53.084;8.872;2022-08-18T01:40:48;14.80;;;13.40;;
32186;SDS011;18686;53.084;8.872;2022-08-18T01:43:38;16.23;;;14.52;;
32186;SDS011;18686;53.084;8.872;2022-08-18T01:46:06;14.27;;;13.00;;
32186;SDS011;18686;53.084;8.872;2022-08-18T01:48:35;17.63;;;15.95;;
32186;SDS011;18686;53.084;8.872;2022-08-18T01:51:04;18.83;;;16.83;;
32186;SDS011;18686;53.084;8.872;2022-08-18T01:53:36;24.35;;;21.77;;
32186;SDS011;18686;53.084;8.872;2022-08-18T01:56:05;34.63;;;27.52;;
32186;SDS011;18686;53.084;8.872;2022-08-18T01:58:35;37.60;;;30.80;;
32186;SDS011;18686;53.084;8.872;2022-08-18T02:01:03;38.10;;;28.90;;
32186;SDS011;18686;53.084;8.872;2022-08-18T02:03:33;46.83;;;33.05;;
32186;SDS011;18686;53.084;8.872;2022-08-18T02:06:07;47.05;;;34.75;;
32186;SDS011;18686;53.084;8.872;2022-08-18T02:08:41;46.50;;;34.38;;
32186;SDS011;18686;53.084;8.872;2022-08-18T02:11:19;53.72;;;37.33;;
32186;SDS011;18686;53.084;8.872;2022-08-18T02:13:47;48.80;;;34.15;;
32186;SDS011;18686;53.084;8.872;2022-08-18T02:16:15;60.75;;;39.35;;
32186;SDS011;18686;53.084;8.872;2022-08-18T02:18:44;54.30;;;37.45;;
32186;SDS011;18686;53.084;8.872;2022-08-18T02:21:14;52.28;;;36.03;;
32186;SDS011;18686;53.084;8.872;2022-08-18T02:23:47;55.35;;;37.65;;
32186;SDS011;18686;53.084;8.872;2022-08-18T02:26:19;59.35;;;38.97;;
32186;SDS011;18686;53.084;8.872;2022-08-18T02:28:49;60.67;;;40.28;;
32186;SDS011;18686;53.084;8.872;2022-08-18T02:31:19;53.40;;;35.25;;
32186;SDS011;18686;53.084;8.872;2022-08-18T02:33:49;56.63;;;39.38;;
32186;SDS011;18686;53.084;8.872;2022-08-18T02:36:18;55.20;;;36.80;;
32186;SDS011;18686;53.084;8.872;2022-08-18T02:38:52;55.50;;;36.15;;
32186;SDS011;18686;53.084;8.872;2022-08-18T02:41:25;57.78;;;37.38;;
32186;SDS011;18686;53.084;8.872;2022-08-18T02:43:55;57.30;;;36.35;;
32186;SDS011;18686;53.084;8.872;2022-08-18T02:46:24;53.67;;;35.10;;
32186;SDS011;18686;53.084;8.872;2022-08-18T02:48:56;51.35;;;34.63;;
32186;SDS011;18686;53.084;8.872;2022-08-18T02:51:25;52.33;;;33.97;;
32186;SDS011;18686;53.084;8.872;2022-08-18T02:53:56;51.50;;;32.17;;
32186;SDS011;18686;53.084;8.872;2022-08-18T02:56:26;53.20;;;33.67;;
32186;SDS011;18686;53.084;8.872;2022-08-18T02:59:08;49.60;;;31.80;;
32186;SDS011;18686;53.084;8.872;2022-08-18T03:01:39;45.35;;;30.30;;
32186;SDS011;18686;53.084;8.872;2022-08-18T03:04:10;42.38;;;29.80;;
32186;SDS011;18686;53.084;8.872;2022-08-18T03:06:41;38.40;;;27.10;;
32186;SDS011;18686;53.084;8.872;2022-08-18T03:09:12;37.25;;;26.40;;
32186;SDS011;18686;53.084;8.872;2022-08-18T03:11:42;38.08;;;26.20;;
32186;SDS011;18686;53.084;8.872;2022-08-18T03:14:14;32.78;;;24.05;;
32186;SDS011;18686;53.084;8.872;2022-08-18T03:16:43;31.65;;;23.75;;
32186;SDS011;18686;53.084;8.872;2022-08-18T03:19:21;34.85;;;22.95;;
32186;SDS011;18686;53.084;8.872;2022-08-18T03:21:49;28.13;;;22.48;;
32186;SDS011;18686;53.084;8.872;2022-08-18T03:24:20;32.40;;;22.70;;
32186;SDS011;18686;53.084;8.872;2022-08-18T03:26:50;30.77;;;22.35;;
32186;SDS011;18686;53.084;8.872;2022-08-18T03:29:20;25.95;;;20.20;;
32186;SDS011;18686;53.084;8.872;2022-08-18T03:31:54;26.52;;;20.13;;
32186;SDS011;18686;53.084;8.872;2022-08-18T03:34:23;25.17;;;20.25;;
32186;SDS011;18686;53.084;8.872;2022-08-18T03:36:51;26.92;;;21.50;;
32186;SDS011;18686;53.084;8.872;2022-08-18T03:39:21;26.70;;;18.50;;
32186;SDS011;18686;53.084;8.872;2022-08-18T03:41:51;23.85;;;18.92;;
32186;SDS011;18686;53.084;8.872;2022-08-18T03:44:26;26.75;;;19.58;;
32186;SDS011;18686;53.084;8.872;2022-08-18T03:46:57;21.52;;;18.40;;
32186;SDS011;18686;53.084;8.872;2022-08-18T03:49:26;25.13;;;19.02;;
32186;SDS011;18686;53.084;8.872;2022-08-18T03:51:54;21.75;;;18.13;;
32186;SDS011;18686;53.084;8.872;2022-08-18T03:54:28;27.45;;;21.75;;
32186;SDS011;18686;53.084;8.872;2022-08-18T03:56:58;28.02;;;21.23;;
32186;SDS011;18686;53.084;8.872;2022-08-18T03:59:27;22.45;;;19.63;;
32186;SDS011;18686;53.084;8.872;2022-08-18T04:01:57;22.50;;;19.63;;
32186;SDS011;18686;53.084;8.872;2022-08-18T04:04:26;27.45;;;22.33;;
32186;SDS011;18686;53.084;8.872;2022-08-18T04:06:55;25.52;;;19.30;;
32186;SDS011;18686;53.084;8.872;2022-08-18T04:09:27;23.92;;;19.90;;
32186;SDS011;18686;53.084;8.872;2022-08-18T04:12:01;22.90;;;19.85;;
32186;SDS011;18686;53.084;8.872;2022-08-18T04:14:43;71.30;;;29.73;;
32186;SDS011;18686;53.084;8.872;2022-08-18T04:17:14;53.55;;;26.17;;
32186;SDS011;18686;53.084;8.872;2022-08-18T04:19:49;32.03;;;22.95;;
32186;SDS011;18686;53.084;8.872;2022-08-18T04:22:18;28.83;;;22.00;;
32186;SDS011;18686;53.084;8.872;2022-08-18T04:24:48;30.90;;;20.73;;
32186;SDS011;18686;53.084;8.872;2022-08-18T04:27:16;22.95;;;19.38;;
32186;SDS011;18686;53.084;8.872;2022-08-18T04:29:45;27.40;;;19.65;;
32186;SDS011;18686;53.084;8.872;2022-08-18T04:32:14;24.88;;;18.73;;
32186;SDS011;18686;53.084;8.872;2022-08-18T04:34:42;19.70;;;17.55;;
32186;SDS011;18686;53.084;8.872;2022-08-18T04:37:11;23.13;;;19.88;;
32186;SDS011;18686;53.084;8.872;2022-08-18T04:39:40;23.52;;;18.88;;
32186;SDS011;18686;53.084;8.872;2022-08-18T04:42:10;20.70;;;17.15;;
32186;SDS011;18686;53.084;8.872;2022-08-18T04:44:39;22.70;;;19.38;;
32186;SDS011;18686;53.084;8.872;2022-08-18T04:47:07;24.40;;;18.63;;
32186;SDS011;18686;53.084;8.872;2022-08-18T04:49:38;25.38;;;21.40;;
32186;SDS011;18686;53.084;8.872;2022-08-18T04:52:06;24.45;;;19.65;;
32186;SDS011;18686;53.084;8.872;2022-08-18T04:55:06;30.00;;;20.48;;
32186;SDS011;18686;53.084;8.872;2022-08-18T04:57:36;26.30;;;21.45;;
32186;SDS011;18686;53.084;8.872;2022-08-18T05:00:05;30.33;;;22.55;;
32186;SDS011;18686;53.084;8.872;2022-08-18T05:02:36;31.23;;;23.38;;
32186;SDS011;18686;53.084;8.872;2022-08-18T05:05:04;27.52;;;20.60;;
32186;SDS011;18686;53.084;8.872;2022-08-18T05:07:33;27.20;;;21.08;;
32186;SDS011;18686;53.084;8.872;2022-08-18T05:10:02;35.05;;;23.38;;
32186;SDS011;18686;53.084;8.872;2022-08-18T05:12:31;27.55;;;20.55;;
32186;SDS011;18686;53.084;8.872;2022-08-18T05:15:00;25.77;;;20.10;;
32186;SDS011;18686;53.084;8.872;2022-08-18T05:17:44;27.05;;;19.42;;
32186;SDS011;18686;53.084;8.872;2022-08-18T05:20:16;23.17;;;17.73;;
32186;SDS011;18686;53.084;8.872;2022-08-18T05:22:46;31.63;;;18.60;;
32186;SDS011;18686;53.084;8.872;2022-08-18T05:25:14;20.73;;;15.65;;
32186;SDS011;18686;53.084;8.872;2022-08-18T05:27:43;23.25;;;16.77;;
32186;SDS011;18686;53.084;8.872;2022-08-18T05:30:11;21.92;;;15.32;;
32186;SDS011;18686;53.084;8.872;2022-08-18T05:32:41;18.42;;;13.93;;
32186;SDS011;18686;53.084;8.872;2022-08-18T05:35:17;17.50;;;13.65;;
32186;SDS011;18686;53.084;8.872;2022-08-18T05:40:55;16.90;;;12.63;;
32186;SDS011;18686;53.084;8.872;2022-08-18T05:43:31;20.98;;;12.60;;
32186;SDS011;18686;53.084;8.872;2022-08-18T05:46:06;16.05;;;12.90;;
32186;SDS011;18686;53.084;8.872;2022-08-18T05:48:37;22.95;;;13.85;;
32186;SDS011;18686;53.084;8.872;2022-08-18T05:51:11;20.00;;;12.43;;
32186;SDS011;18686;53.084;8.872;2022-08-18T05:53:42;17.97;;;14.23;;
32186;SDS011;18686;53.084;8.872;2022-08-18T05:56:30;21.25;;;13.65;;
32186;SDS011;18686;53.084;8.872;2022-08-18T05:59:16;15.18;;;11.57;;
32186;SDS011;18686;53.084;8.872;2022-08-18T06:01:50;17.25;;;11.95;;
32186;SDS011;18686;53.084;8.872;2022-08-18T06:04:27;16.92;;;11.15;;
32186;SDS011;18686;53.084;8.872;2022-08-18T06:07:03;16.23;;;11.65;;
32186;SDS011;18686;53.084;8.872;2022-08-18T06:09:35;18.50;;;12.18;;
32186;SDS011;18686;53.084;8.872;2022-08-18T06:12:12;19.40;;;12.10;;
32186;SDS011;18686;53.084;8.872;2022-08-18T06:14:48;16.73;;;10.65;;
32186;SDS011;18686;53.084;8.872;2022-08-18T06:20:19;14.10;;;10.02;;
32186;SDS011;18686;53.084;8.872;2022-08-18T06:22:54;17.20;;;10.00;;
32186;SDS011;18686;53.084;8.872;2022-08-18T06:25:31;16.42;;;10.05;;
32186;SDS011;18686;53.084;8.872;2022-08-18T06:28:05;15.68;;;9.32;;
32186;SDS011;18686;53.084;8.872;2022-08-18T06:30:42;16.05;;;9.20;;
32186;SDS011;18686;53.084;8.872;2022-08-18T06:33:23;19.17;;;10.98;;
32186;SDS011;18686;53.084;8.872;2022-08-18T06:36:07;14.63;;;8.98;;
32186;SDS011;18686;53.084;8.872;2022-08-18T06:38:50;15.45;;;8.95;;
32186;SDS011;18686;53.084;8.872;2022-08-18T06:41:32;14.40;;;9.52;;
32186;SDS011;18686;53.084;8.872;2022-08-18T06:44:11;16.90;;;9.27;;
32186;SDS011;18686;53.084;8.872;2022-08-18T06:46:43;13.77;;;8.18;;
32186;SDS011;18686;53.084;8.872;2022-08-18T06:49:22;17.42;;;10.10;;
32186;SDS011;18686;53.084;8.872;2022-08-18T06:54:47;14.82;;;8.70;;
32186;SDS011;18686;53.084;8.872;2022-08-18T06:57:21;13.75;;;9.20;;
32186;SDS011;18686;53.084;8.872;2022-08-18T06:59:59;11.00;;;8.10;;
32186;SDS011;18686;53.084;8.872;2022-08-18T07:02:38;15.70;;;8.85;;
32186;SDS011;18686;53.084;8.872;2022-08-18T07:05:17;16.35;;;9.45;;
32186;SDS011;18686;53.084;8.872;2022-08-18T07:08:02;15.85;;;8.25;;
32186;SDS011;18686;53.084;8.872;2022-08-18T07:10:44;14.45;;;7.25;;
32186;SDS011;18686;53.084;8.872;2022-08-18T07:13:15;12.00;;;7.18;;
32186;SDS011;18686;53.084;8.872;2022-08-18T07:19:05;12.77;;;6.85;;
32186;SDS011;18686;53.084;8.872;2022-08-18T07:21:35;12.18;;;8.10;;
32186;SDS011;18686;53.084;8.872;2022-08-18T07:24:08;10.82;;;6.60;;
32186;SDS011;18686;53.084;8.872;2022-08-18T07:26:58;13.23;;;7.30;;
32186;SDS011;18686;53.084;8.872;2022-08-18T07:29:28;10.93;;;8.07;;
32186;SDS011;18686;53.084;8.872;2022-08-18T07:31:58;11.20;;;7.47;;
32186;SDS011;18686;53.084;8.872;2022-08-18T07:34:30;10.40;;;7.05;;
32186;SDS011;18686;53.084;8.872;2022-08-18T07:37:04;15.32;;;8.20;;
32186;SDS011;18686;53.084;8.872;2022-08-18T07:39:39;11.85;;;7.60;;
32186;SDS011;18686;53.084;8.872;2022-08-18T07:42:15;16.50;;;8.30;;
32186;SDS011;18686;53.084;8.872;2022-08-18T07:45:11;15.40;;;9.75;;
32186;SDS011;18686;53.084;8.872;2022-08-18T07:47:51;15.43;;;9.85;;
32186;SDS011;18686;53.084;8.872;2022-08-18T07:50:43;11.82;;;7.20;;
32186;SDS011;18686;53.084;8.872;2022-08-18T07:53:29;17.80;;;9.02;;
32186;SDS011;18686;53.084;8.872;2022-08-18T07:56:06;16.33;;;9.02;;
32186;SDS011;18686;53.084;8.872;2022-08-18T07:58:43;13.25;;;7.63;;
32186;SDS011;18686;53.084;8.872;2022-08-18T08:01:17;8.65;;;7.47;;
32186;SDS011;18686;53.084;8.872;2022-08-18T08:03:52;12.30;;;7.78;;
32186;SDS011;18686;53.084;8.872;2022-08-18T08:06:27;11.93;;;7.93;;
32186;SDS011;18686;53.084;8.872;2022-08-18T08:09:01;15.02;;;10.20;;
32186;SDS011;18686;53.084;8.872;2022-08-18T08:11:42;12.73;;;8.15;;
32186;SDS011;18686;53.084;8.872;2022-08-18T08:14:23;11.43;;;7.88;;
32186;SDS011;18686;53.084;8.872;2022-08-18T08:17:03;16.92;;;10.80;;
32186;SDS011;18686;53.084;8.872;2022-08-18T08:19:43;13.50;;;7.63;;
32186;SDS011;18686;53.084;8.872;2022-08-18T08:22:28;10.38;;;6.45;;
32186;SDS011;18686;53.084;8.872;2022-08-18T08:25:04;12.35;;;7.93;;
32186;SDS011;18686;53.084;8.872;2022-08-18T08:28:03;10.18;;;7.60;;
32186;SDS011;18686;53.084;8.872;2022-08-18T08:30:41;10.13;;;8.02;;
32186;SDS011;18686;53.084;8.872;2022-08-18T08:33:18;7.30;;;6.28;;
32186;SDS011;18686;53.084;8.872;2022-08-18T08:35:51;13.65;;;9.13;;
32186;SDS011;18686;53.084;8.872;2022-08-18T08:38:26;12.10;;;8.15;;
32186;SDS011;18686;53.084;8.872;2022-08-18T08:41:10;8.82;;;6.88;;
32186;SDS011;18686;53.084;8.872;2022-08-18T08:43:48;11.27;;;7.90;;
32186;SDS011;18686;53.084;8.872;2022-08-18T08:46:21;9.95;;;8.45;;
32186;SDS011;18686;53.084;8.872;2022-08-18T08:48:51;13.07;;;8.60;;
32186;SDS011;18686;53.084;8.872;2022-08-18T08:51:27;12.80;;;8.57;;
32186;SDS011;18686;53.084;8.872;2022-08-18T08:54:02;12.88;;;8.38;;
32186;SDS011;18686;53.084;8.872;2022-08-18T08:56:38;10.13;;;7.28;;
32186;SDS011;18686;53.084;8.872;2022-08-18T08:59:13;11.70;;;9.13;;
32186;SDS011;18686;53.084;8.872;2022-08-18T09:01:45;11.18;;;7.90;;
32186;SDS011;18686;53.084;8.872;2022-08-18T09:04:24;10.90;;;7.32;;
32186;SDS011;18686;53.084;8.872;2022-08-18T09:07:03;8.73;;;6.75;;
32186;SDS011;18686;53.084;8.872;2022-08-18T09:09:54;9.75;;;6.38;;
32186;SDS011;18686;53.084;8.872;2022-08-18T09:12:38;6.10;;;5.22;;
32186;SDS011;18686;53.084;8.872;2022-08-18T09:15:32;8.10;;;6.82;;
32186;SDS011;18686;53.084;8.872;2022-08-18T09:18:14;8.48;;;5.38;;
32186;SDS011;18686;53.084;8.872;2022-08-18T09:20:56;11.38;;;5.90;;
32186;SDS011;18686;53.084;8.872;2022-08-18T09:23:33;8.80;;;5.22;;
32186;SDS011;18686;53.084;8.872;2022-08-18T09:26:20;8.63;;;6.00;;
32186;SDS011;18686;53.084;8.872;2022-08-18T09:28:52;8.57;;;6.32;;
32186;SDS011;18686;53.084;8.872;2022-08-18T09:31:24;7.28;;;5.72;;
32186;SDS011;18686;53.084;8.872;2022-08-18T09:36:59;8.68;;;5.93;;
32186;SDS011;18686;53.084;8.872;2022-08-18T09:39:38;8.40;;;4.85;;
32186;SDS011;18686;53.084;8.872;2022-08-18T09:42:39;6.88;;;5.57;;
32186;SDS011;18686;53.084;8.872;2022-08-18T09:45:43;8.63;;;5.75;;
32186;SDS011;18686;53.084;8.872;2022-08-18T09:48:26;8.15;;;4.80;;
32186;SDS011;18686;53.084;8.872;2022-08-18T09:54:08;7.80;;;4.97;;
32186;SDS011;18686;53.084;8.872;2022-08-18T09:59:49;7.07;;;3.72;;
32186;SDS011;18686;53.084;8.872;2022-08-18T10:05:42;6.00;;;3.53;;
32186;SDS011;18686;53.084;8.872;2022-08-18T10:09:00;6.25;;;4.93;;
32186;SDS011;18686;53.084;8.872;2022-08-18T10:12:13;5.82;;;4.45;;
32186;SDS011;18686;53.084;8.872;2022-08-18T10:15:12;7.97;;;4.53;;
32186;SDS011;18686;53.084;8.872;2022-08-18T10:18:07;3.33;;;2.83;;
32186;SDS011;18686;53.084;8.872;2022-08-18T10:20:51;6.68;;;3.45;;
32186;SDS011;18686;53.084;8.872;2022-08-18T10:29:52;5.32;;;3.17;;
32186;SDS011;18686;53.084;8.872;2022-08-18T10:32:34;3.97;;;2.50;;
32186;SDS011;18686;53.084;8.872;2022-08-18T10:35:05;3.70;;;2.33;;
32186;SDS011;18686;53.084;8.872;2022-08-18T10:38:22;5.40;;;2.93;;
32186;SDS011;18686;53.084;8.872;2022-08-18T10:40:59;5.85;;;2.78;;
32186;SDS011;18686;53.084;8.872;2022-08-18T10:43:41;3.58;;;2.55;;
32186;SDS011;18686;53.084;8.872;2022-08-18T10:46:33;4.63;;;2.55;;
32186;SDS011;18686;53.084;8.872;2022-08-18T10:49:16;2.95;;;2.05;;
32186;SDS011;18686;53.084;8.872;2022-08-18T10:52:01;7.00;;;3.67;;
32186;SDS011;18686;53.084;8.872;2022-08-18T10:55:00;6.93;;;2.60;;
32186;SDS011;18686;53.084;8.872;2022-08-18T10:57:52;4.25;;;2.60;;
32186;SDS011;18686;53.084;8.872;2022-08-18T11:00:38;5.07;;;2.60;;
32186;SDS011;18686;53.084;8.872;2022-08-18T11:03:21;4.50;;;2.53;;
32186;SDS011;18686;53.084;8.872;2022-08-18T11:06:18;4.80;;;2.70;;
32186;SDS011;18686;53.084;8.872;2022-08-18T11:08:50;5.35;;;2.65;;
32186;SDS011;18686;53.084;8.872;2022-08-18T11:11:42;4.30;;;2.60;;
32186;SDS011;18686;53.084;8.872;2022-08-18T11:14:38;4.05;;;2.38;;
32186;SDS011;18686;53.084;8.872;2022-08-18T11:17:29;3.75;;;2.35;;
32186;SDS011;18686;53.084;8.872;2022-08-18T11:20:08;4.83;;;2.17;;
32186;SDS011;18686;53.084;8.872;2022-08-18T11:22:47;4.20;;;1.63;;
32186;SDS011;18686;53.084;8.872;2022-08-18T11:25:27;2.40;;;1.52;;
32186;SDS011;18686;53.084;8.872;2022-08-18T11:28:00;2.20;;;1.60;;
32186;SDS011;18686;53.084;8.872;2022-08-18T11:30:29;2.45;;;1.63;;
32186;SDS011;18686;53.084;8.872;2022-08-18T11:33:02;2.42;;;1.42;;
32186;SDS011;18686;53.084;8.872;2022-08-18T11:35:33;3.55;;;1.90;;
32186;SDS011;18686;53.084;8.872;2022-08-18T11:38:13;2.88;;;1.80;;
32186;SDS011;18686;53.084;8.872;2022-08-18T11:40:50;2.20;;;1.60;;
32186;SDS011;18686;53.084;8.872;2022-08-18T11:43:40;3.50;;;1.80;;
32186;SDS011;18686;53.084;8.872;2022-08-18T11:46:15;3.10;;;1.88;;
32186;SDS011;18686;53.084;8.872;2022-08-18T11:48:57;4.82;;;2.10;;
32186;SDS011;18686;53.084;8.872;2022-08-18T11:51:28;7.72;;;3.00;;
32186;SDS011;18686;53.084;8.872;2022-08-18T11:53:59;7.28;;;2.88;;
32186;SDS011;18686;53.084;8.872;2022-08-18T11:56:31;4.40;;;2.40;;
32186;SDS011;18686;53.084;8.872;2022-08-18T11:59:06;6.57;;;2.97;;
32186;SDS011;18686;53.084;8.872;2022-08-18T12:02:18;5.22;;;2.90;;
32186;SDS011;18686;53.084;8.872;2022-08-18T12:04:51;8.02;;;2.90;;
32186;SDS011;18686;53.084;8.872;2022-08-18T12:07:34;5.97;;;2.78;;
32186;SDS011;18686;53.084;8.872;2022-08-18T12:10:14;5.90;;;2.65;;
32186;SDS011;18686;53.084;8.872;2022-08-18T12:12:54;4.05;;;2.30;;
32186;SDS011;18686;53.084;8.872;2022-08-18T12:15:27;4.82;;;2.25;;
32186;SDS011;18686;53.084;8.872;2022-08-18T12:18:13;9.32;;;2.72;;
32186;SDS011;18686;53.084;8.872;2022-08-18T12:20:54;5.68;;;2.78;;
32186;SDS011;18686;53.084;8.872;2022-08-18T12:23:24;6.22;;;3.25;;
32186;SDS011;18686;53.084;8.872;2022-08-18T12:26:04;6.45;;;3.20;;
32186;SDS011;18686;53.084;8.872;2022-08-18T12:28:53;6.28;;;2.50;;
32186;SDS011;18686;53.084;8.872;2022-08-18T12:31:27;5.03;;;2.72;;
32186;SDS011;18686;53.084;8.872;2022-08-18T12:34:15;4.68;;;2.25;;
32186;SDS011;18686;53.084;8.872;2022-08-18T12:36:52;4.13;;;2.20;;
32186;SDS011;18686;53.084;8.872;2022-08-18T12:39:22;4.22;;;2.17;;
32186;SDS011;18686;53.084;8.872;2022-08-18T12:41:50;3.45;;;2.20;;
32186;SDS011;18686;53.084;8.872;2022-08-18T12:44:19;4.88;;;2.55;;
32186;SDS011;18686;53.084;8.872;2022-08-18T12:46:47;4.97;;;2.45;;
32186;SDS011;18686;53.084;8.872;2022-08-18T12:49:18;4.95;;;2.42;;
32186;SDS011;18686;53.084;8.872;2022-08-18T12:51:49;6.13;;;2.53;;
32186;SDS011;18686;53.084;8.872;2022-08-18T12:54:21;4.45;;;2.42;;
32186;SDS011;18686;53.084;8.872;2022-08-18T12:56:51;4.03;;;2.63;;
32186;SDS011;18686;53.084;8.872;2022-08-18T12:59:21;4.65;;;2.50;;
32186;SDS011;18686;53.084;8.872;2022-08-18T13:01:58;7.60;;;4.85;;
32186;SDS011;18686;53.084;8.872;2022-08-18T13:04:28;4.38;;;3.40;;
32186;SDS011;18686;53.084;8.872;2022-08-18T13:06:57;4.63;;;2.90;;
32186;SDS011;18686;53.084;8.872;2022-08-18T13:09:32;4.60;;;2.30;;
32186;SDS011;18686;53.084;8.872;2022-08-18T13:12:19;4.05;;;2.20;;
32186;SDS011;18686;53.084;8.872;2022-08-18T13:14:49;5.63;;;2.80;;
32186;SDS011;18686;53.084;8.872;2022-08-18T13:17:20;4.22;;;2.47;;
32186;SDS011;18686;53.084;8.872;2022-08-18T13:20:01;3.03;;;2.22;;
32186;SDS011;18686;53.084;8.872;2022-08-18T13:22:33;3.38;;;2.33;;
32186;SDS011;18686;53.084;8.872;2022-08-18T13:25:02;6.32;;;2.20;;
32186;SDS011;18686;53.084;8.872;2022-08-18T13:27:33;3.58;;;2.50;;
32186;SDS011;18686;53.084;8.872;2022-08-18T13:30:13;3.47;;;2.22;;
32186;SDS011;18686;53.084;8.872;2022-08-18T13:32:57;3.67;;;2.40;;
32186;SDS011;18686;53.084;8.872;2022-08-18T13:35:38;4.72;;;2.28;;
32186;SDS011;18686;53.084;8.872;2022-08-18T13:38:12;4.20;;;2.45;;
32186;SDS011;18686;53.084;8.872;2022-08-18T13:40:47;6.65;;;2.75;;
32186;SDS011;18686;53.084;8.872;2022-08-18T13:43:17;3.47;;;2.28;;
32186;SDS011;18686;53.084;8.872;2022-08-18T13:45:49;5.50;;;2.17;;
32186;SDS011;18686;53.084;8.872;2022-08-18T13:48:21;5.55;;;2.20;;
32186;SDS011;18686;53.084;8.872;2022-08-18T13:50:53;4.03;;;2.30;;
32186;SDS011;18686;53.084;8.872;2022-08-18T13:53:22;3.38;;;2.20;;
32186;SDS011;18686;53.084;8.872;2022-08-18T13:55:52;4.47;;;2.22;;
32186;SDS011;18686;53.084;8.872;2022-08-18T13:58:24;4.38;;;2.50;;
32186;SDS011;18686;53.084;8.872;2022-08-18T14:00:55;3.97;;;1.90;;
32186;SDS011;18686;53.084;8.872;2022-08-18T14:03:41;4.97;;;2.00;;
32186;SDS011;18686;53.084;8.872;2022-08-18T14:06:14;6.10;;;2.70;;
32186;SDS011;18686;53.084;8.872;2022-08-18T14:08:49;4.25;;;2.05;;
32186;SDS011;18686;53.084;8.872;2022-08-18T14:11:19;2.88;;;2.03;;
32186;SDS011;18686;53.084;8.872;2022-08-18T14:13:53;3.30;;;2.33;;
32186;SDS011;18686;53.084;8.872;2022-08-18T14:16:22;4.03;;;2.20;;
32186;SDS011;18686;53.084;8.872;2022-08-18T14:18:52;6.22;;;2.65;;
32186;SDS011;18686;53.084;8.872;2022-08-18T14:21:41;4.53;;;2.38;;
32186;SDS011;18686;53.084;8.872;2022-08-18T14:24:32;4.57;;;2.67;;
32186;SDS011;18686;53.084;8.872;2022-08-18T14:27:19;8.00;;;3.00;;
32186;SDS011;18686;53.084;8.872;2022-08-18T14:30:00;3.88;;;2.60;;
32186;SDS011;18686;53.084;8.872;2022-08-18T14:32:33;5.53;;;2.38;;
32186;SDS011;18686;53.084;8.872;2022-08-18T14:35:14;7.25;;;3.05;;
32186;SDS011;18686;53.084;8.872;2022-08-18T14:38:05;4.82;;;2.58;;
32186;SDS011;18686;53.084;8.872;2022-08-18T14:40:36;6.13;;;3.00;;
32186;SDS011;18686;53.084;8.872;2022-08-18T14:43:08;5.70;;;2.60;;
32186;SDS011;18686;53.084;8.872;2022-08-18T14:45:39;5.30;;;2.83;;
32186;SDS011;18686;53.084;8.872;2022-08-18T14:48:15;4.95;;;2.50;;
32186;SDS011;18686;53.084;8.872;2022-08-18T14:50:46;7.15;;;2.72;;
32186;SDS011;18686;53.084;8.872;2022-08-18T14:53:17;5.40;;;2.42;;
32186;SDS011;18686;53.084;8.872;2022-08-18T14:55:47;4.88;;;2.70;;
32186;SDS011;18686;53.084;8.872;2022-08-18T14:58:18;7.10;;;2.78;;
32186;SDS011;18686;53.084;8.872;2022-08-18T15:00:49;4.72;;;2.60;;
32186;SDS011;18686;53.084;8.872;2022-08-18T15:03:22;6.85;;;2.80;;
32186;SDS011;18686;53.084;8.872;2022-08-18T15:05:57;6.05;;;3.05;;
32186;SDS011;18686;53.084;8.872;2022-08-18T15:08:33;8.35;;;2.90;;
32186;SDS011;18686;53.084;8.872;2022-08-18T15:11:03;4.85;;;2.67;;
32186;SDS011;18686;53.084;8.872;2022-08-18T15:13:38;5.00;;;2.38;;
32186;SDS011;18686;53.084;8.872;2022-08-18T15:16:11;3.72;;;2.47;;
32186;SDS011;18686;53.084;8.872;2022-08-18T15:18:39;6.57;;;3.22;;
32186;SDS011;18686;53.084;8.872;2022-08-18T15:21:09;9.68;;;3.40;;
32186;SDS011;18686;53.084;8.872;2022-08-18T15:24:06;6.57;;;2.88;;
32186;SDS011;18686;53.084;8.872;2022-08-18T15:26:53;8.93;;;3.78;;
32186;SDS011;18686;53.084;8.872;2022-08-18T15:29:32;6.25;;;2.92;;
32186;SDS011;18686;53.084;8.872;2022-08-18T15:32:01;5.50;;;2.92;;
32186;SDS011;18686;53.084;8.872;2022-08-18T15:34:36;10.32;;;3.17;;
32186;SDS011;18686;53.084;8.872;2022-08-18T15:37:13;7.57;;;3.17;;
32186;SDS011;18686;53.084;8.872;2022-08-18T15:39:47;8.88;;;3.50;;
32186;SDS011;18686;53.084;8.872;2022-08-18T15:42:21;7.85;;;4.10;;
32186;SDS011;18686;53.084;8.872;2022-08-18T15:44:50;7.20;;;3.30;;
32186;SDS011;18686;53.084;8.872;2022-08-18T15:47:19;6.53;;;3.45;;
32186;SDS011;18686;53.084;8.872;2022-08-18T15:49:50;7.20;;;3.00;;
32186;SDS011;18686;53.084;8.872;2022-08-18T15:52:20;6.35;;;3.33;;
32186;SDS011;18686;53.084;8.872;2022-08-18T15:54:53;5.53;;;3.20;;
32186;SDS011;18686;53.084;8.872;2022-08-18T15:57:27;6.97;;;2.92;;
32186;SDS011;18686;53.084;8.872;2022-08-18T16:00:05;6.53;;;3.58;;